Time;durP1;ratioP1;P1;durP2;ratioP2;P2;SDS_P1;SDS_P2;PMS_P1;PMS_P2;Temp;Humidity;BMP_temperature;BMP_pressure;BME280_temperature;BME280_humidity;BME280_pressure;Samples;Min_cycle;Max_cycle;Signal;HPM_P1;HPM_P2
2021/05/25 00:00:49;;;;;;;6.00;4.30;;;;;;;15.32;82.01;100031.28;4737154;30;20028;-63
2021/05/25 00:03:15;;;;;;;15.52;4.93;;;;;;;15.34;82.62;100014.66;4737095;30;20183;-64
2021/05/25 00:05:41;;;;;;;7.72;4.25;;;;;;;15.35;82.30;100012.63;4736977;30;20043;-64
2021/05/25 00:08:08;;;;;;;7.55;4.63;;;;;;;15.32;82.40;100008.63;4737419;30;20033;-63
2021/05/25 00:10:34;;;;;;;6.47;4.22;;;;;;;15.35;82.10;99992.81;4737010;30;20044;-64
2021/05/25 00:13:00;;;;;;;8.40;4.07;;;;;;;15.36;82.31;99980.22;4737238;30;20051;-64
2021/05/25 00:15:29;;;;;;;5.22;4.25;;;;;;;15.38;82.16;99974.91;4737235;30;20323;-64
2021/05/25 00:17:55;;;;;;;8.88;3.75;;;;;;;15.38;82.00;99966.44;4736918;30;20029;-64
2021/05/25 00:20:22;;;;;;;6.78;3.75;;;;;;;15.33;81.99;99972.59;4737214;30;20325;-64
2021/05/25 00:22:48;;;;;;;4.53;3.67;;;;;;;15.30;82.50;99950.84;4736609;30;20068;-64
2021/05/25 00:25:16;;;;;;;7.55;3.72;;;;;;;15.27;82.65;99958.19;4737344;30;20076;-64
2021/05/25 00:27:43;;;;;;;10.85;4.18;;;;;;;15.24;82.50;99967.59;4735824;30;20033;-64
2021/05/25 00:30:11;;;;;;;5.57;4.15;;;;;;;15.22;82.95;99957.94;4737156;30;20033;-64
2021/05/25 00:32:37;;;;;;;6.25;3.35;;;;;;;15.24;83.28;99952.63;4736872;30;20056;-64
2021/05/25 00:35:03;;;;;;;9.60;3.55;;;;;;;15.25;82.80;99949.34;4737148;30;20052;-63
2021/05/25 00:37:29;;;;;;;4.85;3.50;;;;;;;15.25;83.04;99942.91;4736534;30;20044;-64
2021/05/25 00:39:54;;;;;;;6.30;3.53;;;;;;;15.24;82.43;99935.66;4750609;30;20020;-64
2021/05/25 00:42:19;;;;;;;6.80;3.75;;;;;;;15.27;82.61;99935.56;4737313;30;20318;-63
2021/05/25 00:44:45;;;;;;;6.88;3.35;;;;;;;15.25;82.77;99932.38;4736895;30;20032;-63
2021/05/25 00:47:10;;;;;;;7.65;3.67;;;;;;;15.27;82.55;99934.75;4737030;30;20028;-63
2021/05/25 00:49:35;;;;;;;5.00;3.05;;;;;;;15.27;82.64;99937.59;4736565;30;20043;-63
2021/05/25 00:52:01;;;;;;;4.65;2.88;;;;;;;15.25;82.11;99937.25;4736502;30;20028;-63
2021/05/25 00:54:27;;;;;;;3.40;2.97;;;;;;;15.24;82.36;99930.78;4750618;30;20061;-63
2021/05/25 00:56:54;;;;;;;4.72;3.17;;;;;;;15.24;82.43;99944.16;4736609;30;20028;-64
2021/05/25 00:59:20;;;;;;;5.47;2.78;;;;;;;15.20;82.15;99943.44;4736712;30;20447;-63
2021/05/25 01:01:46;;;;;;;4.10;2.88;;;;;;;15.15;82.57;99951.25;4736459;30;20037;-63
2021/05/25 01:04:11;;;;;;;4.78;3.30;;;;;;;15.19;82.95;99956.00;4737117;30;20043;-63
2021/05/25 01:06:36;;;;;;;6.15;3.30;;;;;;;15.17;82.75;99967.00;4736311;30;20036;-63
2021/05/25 01:09:03;;;;;;;4.80;3.25;;;;;;;15.14;83.04;99977.16;4738215;30;20036;-64
2021/05/25 01:11:29;;;;;;;3.75;3.22;;;;;;;15.13;82.99;99982.03;4740509;30;20107;-63
2021/05/25 01:13:57;;;;;;;4.80;3.45;;;;;;;15.10;82.83;99982.13;4740372;30;20325;-63
2021/05/25 01:16:26;;;;;;;4.53;2.95;;;;;;;15.06;83.07;99978.56;4739868;30;20032;-64
2021/05/25 01:18:51;;;;;;;4.18;3.17;;;;;;;15.02;83.13;99981.50;4740011;30;20032;-63
2021/05/25 01:21:17;;;;;;;3.63;3.25;;;;;;;14.99;83.11;99992.91;4739739;30;20025;-64
2021/05/25 01:23:43;;;;;;;4.15;2.53;;;;;;;14.97;83.28;99990.53;4753441;30;20048;-64
2021/05/25 01:26:09;;;;;;;7.35;3.00;;;;;;;14.95;83.33;99993.00;4739776;30;20029;-63
2021/05/25 01:28:35;;;;;;;5.68;3.13;;;;;;;14.94;83.39;100004.75;4740272;30;20031;-63
2021/05/25 01:31:03;;;;;;;4.55;3.40;;;;;;;14.92;83.32;99998.75;4739596;30;20330;-63
2021/05/25 01:33:31;;;;;;;4.70;3.40;;;;;;;14.87;83.46;99991.59;4738469;30;20024;-63
2021/05/25 01:35:56;;;;;;;6.65;3.10;;;;;;;14.83;83.38;99980.38;4739305;30;20422;-63
2021/05/25 01:38:23;;;;;;;4.80;2.83;;;;;;;14.77;83.83;99982.09;4739413;30;20039;-62
2021/05/25 01:40:52;;;;;;;5.38;3.33;;;;;;;14.74;83.44;99993.53;4739743;30;20034;-63
2021/05/25 01:43:17;;;;;;;4.35;3.25;;;;;;;14.71;83.95;99991.56;4739734;30;20035;-63
2021/05/25 01:45:43;;;;;;;7.55;3.38;;;;;;;14.70;84.13;99996.44;4739630;30;20029;-63
2021/05/25 01:48:09;;;;;;;5.43;3.60;;;;;;;14.70;83.87;99995.63;4739515;30;20483;-63
2021/05/25 01:50:37;;;;;;;5.20;4.07;;;;;;;14.70;83.94;99987.16;4739404;30;20061;-65
2021/05/25 01:53:14;;;;;;;5.00;3.70;;;;;;;14.69;84.23;99994.03;4739410;30;20585;-65
2021/05/25 01:55:51;;;;;;;7.00;3.35;;;;;;;14.67;84.68;99990.88;4753143;30;20039;-65
2021/05/25 01:58:24;;;;;;;10.95;4.20;;;;;;;14.66;84.93;99983.63;4739006;30;20036;-65
2021/05/25 02:00:53;;;;;;;5.47;4.00;;;;;;;14.66;85.15;99966.66;4739551;30;20036;-65
2021/05/25 02:03:19;;;;;;;5.65;4.18;;;;;;;14.63;85.02;99967.53;4739359;30;20028;-65
2021/05/25 02:05:46;;;;;;;5.07;4.10;;;;;;;14.63;84.56;99964.69;4738898;30;20032;-65
2021/05/25 02:08:11;;;;;;;5.57;3.80;;;;;;;14.61;84.79;99962.31;4739469;30;20055;-65
2021/05/25 02:10:41;;;;;;;5.90;4.20;;;;;;;14.62;85.27;99974.44;4739112;30;20414;-65
2021/05/25 02:13:08;;;;;;;5.32;3.78;;;;;;;14.59;85.30;99983.78;4739133;30;20082;-63
2021/05/25 02:15:34;;;;;;;10.23;4.38;;;;;;;14.57;85.38;99989.09;4739142;30;20029;-63
2021/05/25 02:18:23;;;;;;;10.30;4.28;;;;;;;14.56;85.05;99998.81;4739118;30;20052;-63
2021/05/25 02:20:51;;;;;;;4.75;4.25;;;;;;;14.53;85.38;100004.13;4737857;30;20164;-63
2021/05/25 02:23:17;;;;;;;7.78;4.32;;;;;;;14.50;86.00;100004.97;4739034;30;20132;-63
2021/05/25 02:25:42;;;;;;;8.60;4.20;;;;;;;14.49;85.80;100013.91;4738850;30;20112;-63
2021/05/25 02:28:09;;;;;;;5.45;4.15;;;;;;;14.47;85.54;100000.19;4738911;30;20422;-63
2021/05/25 02:30:36;;;;;;;6.28;4.30;;;;;;;14.45;85.75;99999.84;4738929;30;20488;-63
2021/05/25 02:33:06;;;;;;;5.63;4.32;;;;;;;14.42;85.41;100000.69;4738704;30;20163;-63
2021/05/25 02:35:32;;;;;;;6.40;4.20;;;;;;;14.41;85.78;100007.59;4738678;30;20044;-63
2021/05/25 02:37:57;;;;;;;5.47;3.95;;;;;;;14.40;85.79;100008.81;4738726;30;20382;-63
2021/05/25 02:40:23;;;;;;;5.53;3.97;;;;;;;14.40;86.00;100011.66;4738583;30;20025;-63
2021/05/25 02:42:49;;;;;;;4.60;3.88;;;;;;;14.41;85.59;100023.75;4738823;30;20055;-63
2021/05/25 02:45:14;;;;;;;7.28;4.05;;;;;;;14.39;85.34;100024.19;4736908;30;20406;-63
2021/05/25 02:47:40;;;;;;;6.00;3.67;;;;;;;14.37;86.09;100029.50;4738510;30;20033;-63
2021/05/25 02:50:07;;;;;;;5.90;3.78;;;;;;;14.34;86.43;100038.84;4738165;30;20090;-63
2021/05/25 02:52:37;;;;;;;5.90;4.20;;;;;;;14.34;86.75;100035.22;4738395;30;20044;-62
2021/05/25 02:55:09;;;;;;;6.78;3.90;;;;;;;14.33;86.68;100042.13;4738562;30;20043;-63
2021/05/25 02:57:34;;;;;;;7.78;4.30;;;;;;;14.35;86.42;100043.25;4738485;30;20044;-63
2021/05/25 03:00:03;;;;;;;7.57;4.18;;;;;;;14.36;86.29;100042.03;4738516;30;20087;-63
2021/05/25 03:02:28;;;;;;;5.95;4.40;;;;;;;14.36;86.28;100041.22;4738009;30;20044;-63
2021/05/25 03:04:54;;;;;;;5.75;4.13;;;;;;;14.33;85.88;100037.25;4738577;30;20115;-63
2021/05/25 03:07:19;;;;;;;6.93;4.18;;;;;;;14.32;86.23;100032.03;4752164;30;20123;-63
2021/05/25 03:09:44;;;;;;;7.80;4.55;;;;;;;14.31;86.09;100044.59;4738026;30;20383;-63
2021/05/25 03:12:10;;;;;;;6.90;4.35;;;;;;;14.26;86.19;100037.41;4738190;30;20028;-63
2021/05/25 03:14:35;;;;;;;4.20;3.80;;;;;;;14.24;86.06;100042.69;4738139;30;20047;-63
2021/05/25 03:17:01;;;;;;;8.57;3.67;;;;;;;14.20;86.33;100034.28;4737765;30;20076;-63
2021/05/25 03:19:26;;;;;;;6.75;4.63;;;;;;;14.16;86.58;100039.22;4737803;30;20037;-62
2021/05/25 03:21:53;;;;;;;6.28;4.63;;;;;;;14.13;86.68;100042.13;4737734;30;20052;-62
2021/05/25 03:24:20;;;;;;;8.80;4.40;;;;;;;14.10;86.52;100026.84;4727953;30;20054;-62
2021/05/25 03:26:45;;;;;;;7.43;3.80;;;;;;;14.06;86.83;100030.97;4737459;30;20029;-63
2021/05/25 03:29:10;;;;;;;4.85;4.35;;;;;;;14.02;87.00;100027.44;4738287;30;20087;-64
2021/05/25 03:31:36;;;;;;;5.85;4.55;;;;;;;13.99;87.35;100028.31;4737552;30;20055;-65
2021/05/25 03:34:02;;;;;;;23.63;5.40;;;;;;;13.98;87.34;100021.06;4751361;30;20032;-65
2021/05/25 03:36:28;;;;;;;8.13;4.35;;;;;;;13.98;87.47;100009.75;4737975;30;20090;-65
2021/05/25 03:38:53;;;;;;;6.18;4.03;;;;;;;13.97;87.74;100008.97;4737636;30;20036;-63
2021/05/25 03:41:19;;;;;;;5.90;4.47;;;;;;;13.98;87.64;100010.56;4737821;30;20028;-63
2021/05/25 03:43:44;;;;;;;9.27;4.85;;;;;;;14.00;88.33;100016.56;4737464;30;20043;-63
2021/05/25 03:46:10;;;;;;;8.95;4.90;;;;;;;14.04;88.46;100019.31;4737871;30;20447;-63
2021/05/25 03:48:35;;;;;;;8.48;5.25;;;;;;;14.06;87.94;100028.94;4737732;30;20037;-63
2021/05/25 03:51:00;;;;;;;8.40;4.85;;;;;;;14.08;87.83;100022.84;4737432;30;20029;-63
2021/05/25 03:53:27;;;;;;;6.05;5.07;;;;;;;14.08;87.89;100020.81;4737564;30;20033;-63
2021/05/25 03:55:55;;;;;;;10.60;6.22;;;;;;;14.10;87.32;100028.88;4737399;30;20384;-63
2021/05/25 04:01:05;;;;;;;7.13;5.43;;;;;;;14.18;88.21;100041.59;4737514;30;20044;-63
2021/05/25 04:03:30;;;;;;;7.35;5.63;;;;;;;14.23;88.17;100043.91;4737422;30;20033;-63
2021/05/25 04:05:56;;;;;;;6.20;5.07;;;;;;;14.27;87.81;100055.19;4737218;30;20138;-63
2021/05/25 04:08:22;;;;;;;5.82;4.38;;;;;;;14.31;88.27;100055.88;4737603;30;20021;-64
2021/05/25 04:10:48;;;;;;;7.75;5.78;;;;;;;14.35;88.25;100045.31;4737232;30;20032;-64
2021/05/25 04:13:15;;;;;;;9.95;5.03;;;;;;;14.39;88.37;100048.84;4750913;30;20243;-64
2021/05/25 04:15:48;;;;;;;9.52;5.30;;;;;;;14.44;88.13;100049.16;4736981;30;20037;-63
2021/05/25 04:18:14;;;;;;;6.93;4.78;;;;;;;14.48;88.04;100055.50;4736870;30;20507;-63
2021/05/25 04:20:40;;;;;;;9.95;5.22;;;;;;;14.53;87.31;100055.03;4737312;30;20032;-64
2021/05/25 04:23:05;;;;;;;9.20;4.80;;;;;;;14.59;87.22;100057.31;4737000;30;20086;-64
2021/05/25 04:25:30;;;;;;;5.43;4.28;;;;;;;14.65;87.64;100047.09;4737289;30;20117;-63
2021/05/25 04:27:56;;;;;;;6.97;4.57;;;;;;;14.67;86.39;100051.06;4736859;30;20029;-63
2021/05/25 04:30:22;;;;;;;7.80;4.85;;;;;;;14.72;86.99;100046.91;4737255;30;20024;-66
2021/05/25 04:32:48;;;;;;;7.18;4.15;;;;;;;14.77;86.47;100047.19;4737094;30;20112;-65
2021/05/25 04:35:13;;;;;;;5.35;4.15;;;;;;;14.83;86.24;100036.94;4736926;30;20496;-65
2021/05/25 04:37:39;;;;;;;6.95;4.20;;;;;;;14.90;86.68;100043.69;4736159;30;20445;-65
2021/05/25 04:40:05;;;;;;;4.53;3.97;;;;;;;14.95;86.36;100035.44;4736813;30;20445;-65
2021/05/25 04:42:30;;;;;;;5.00;4.20;;;;;;;15.02;86.35;100034.47;4736299;30;20095;-65
2021/05/25 04:44:55;;;;;;;8.70;4.28;;;;;;;15.08;85.84;100042.00;4736212;30;20321;-65
2021/05/25 04:47:21;;;;;;;8.77;4.38;;;;;;;15.17;85.37;100044.22;4734631;30;20182;-65
2021/05/25 04:49:46;;;;;;;6.68;4.30;;;;;;;15.25;85.08;100044.81;4736740;30;20037;-65
2021/05/25 04:52:11;;;;;;;8.13;3.88;;;;;;;15.31;84.71;100052.34;4736626;30;20123;-65
2021/05/25 04:54:37;;;;;;;6.22;4.15;;;;;;;15.39;84.81;100044.47;4736742;30;20115;-65
2021/05/25 04:57:02;;;;;;;9.82;3.92;;;;;;;15.47;85.32;100040.22;4737003;30;20083;-65
2021/05/25 04:59:28;;;;;;;7.20;3.75;;;;;;;15.55;84.61;100040.81;4736411;30;20028;-63
2021/05/25 05:01:53;;;;;;;4.53;3.42;;;;;;;15.62;84.50;100049.16;4736237;30;20056;-63
2021/05/25 05:04:18;;;;;;;5.70;3.95;;;;;;;15.70;84.60;100065.53;4735442;30;20029;-63
2021/05/25 05:06:44;;;;;;;7.53;4.15;;;;;;;15.78;83.89;100071.78;4735163;30;20041;-63
2021/05/25 05:09:09;;;;;;;12.15;3.80;;;;;;;15.86;84.21;100078.84;4737524;30;20033;-63
2021/05/25 05:11:35;;;;;;;6.55;4.38;;;;;;;15.96;84.36;100076.97;4735738;30;20121;-63
2021/05/25 05:14:00;;;;;;;4.45;4.00;;;;;;;16.03;83.39;100086.06;4733843;30;20102;-63
2021/05/25 05:16:26;;;;;;;6.97;3.80;;;;;;;16.11;83.14;100086.66;4750052;30;20040;-63
2021/05/25 05:18:51;;;;;;;6.70;3.90;;;;;;;16.18;83.80;100088.50;4736453;30;20063;-65
2021/05/25 05:21:17;;;;;;;7.22;4.47;;;;;;;16.22;83.59;100087.16;4736440;30;20055;-67
2021/05/25 05:23:42;;;;;;;8.38;3.97;;;;;;;16.31;83.50;100095.81;4736271;30;20040;-65
2021/05/25 05:26:08;;;;;;;5.55;3.67;;;;;;;16.37;82.43;100088.31;4736758;30;20040;-65
2021/05/25 05:28:34;;;;;;;7.65;4.30;;;;;;;16.48;83.63;100092.91;4736560;30;20032;-65
2021/05/25 05:30:59;;;;;;;11.38;3.75;;;;;;;16.55;83.23;100098.38;4736446;30;20059;-65
2021/05/25 05:33:24;;;;;;;6.60;3.60;;;;;;;16.64;83.44;100093.59;4736152;30;20029;-65
2021/05/25 05:35:50;;;;;;;7.68;3.60;;;;;;;16.74;82.46;100100.25;4736550;30;20036;-65
2021/05/25 05:38:15;;;;;;;8.27;3.10;;;;;;;16.81;81.66;100108.53;4736308;30;20036;-65
2021/05/25 05:40:41;;;;;;;5.03;3.20;;;;;;;16.89;81.46;100109.09;4736550;30;20024;-63
2021/05/25 05:43:07;;;;;;;11.10;4.35;;;;;;;16.97;82.49;100111.25;4736374;30;20036;-63
2021/05/25 05:45:33;;;;;;;3.90;3.50;;;;;;;17.09;82.74;100114.56;4736292;30;20035;-63
2021/05/25 05:47:59;;;;;;;9.13;3.88;;;;;;;17.16;80.11;100115.13;4736482;30;20058;-63
2021/05/25 05:50:24;;;;;;;9.98;3.72;;;;;;;17.26;79.75;100121.75;4736111;30;20406;-63
2021/05/25 05:52:49;;;;;;;5.25;3.60;;;;;;;17.35;79.68;100124.69;4736259;30;20037;-63
2021/05/25 05:55:15;;;;;;;7.00;4.00;;;;;;;17.45;80.12;100117.03;4736531;30;20036;-63
2021/05/25 05:57:42;;;;;;;8.52;3.92;;;;;;;17.55;79.73;100127.28;4739015;30;20040;-63
2021/05/25 06:00:08;;;;;;;11.13;4.10;;;;;;;17.64;79.61;100123.72;4739658;30;20055;-63
2021/05/25 06:02:34;;;;;;;5.38;3.60;;;;;;;17.72;79.33;100125.09;4739110;30;20044;-63
2021/05/25 06:05:00;;;;;;;8.35;4.55;;;;;;;17.80;77.75;100121.53;4739376;30;20036;-63
2021/05/25 06:07:25;;;;;;;4.45;3.53;;;;;;;17.88;78.29;100122.91;4739410;30;20037;-63
2021/05/25 06:09:52;;;;;;;7.00;4.35;;;;;;;17.99;77.54;100130.25;4739021;30;20108;-63
2021/05/25 06:12:17;;;;;;;6.55;4.30;;;;;;;18.09;76.09;100132.75;4739251;30;20313;-63
2021/05/25 06:14:42;;;;;;;5.30;4.07;;;;;;;18.19;77.32;100133.59;4739079;30;20025;-63
2021/05/25 06:17:08;;;;;;;8.65;4.72;;;;;;;18.27;76.47;100136.97;4739067;30;20115;-63
2021/05/25 06:19:33;;;;;;;6.05;4.45;;;;;;;18.33;75.97;100130.22;4739044;30;20039;-63
2021/05/25 06:21:58;;;;;;;7.30;4.20;;;;;;;18.41;75.68;100130.78;4738896;30;20052;-63
2021/05/25 06:24:24;;;;;;;7.40;4.63;;;;;;;18.55;75.39;100135.91;4739217;30;20040;-64
2021/05/25 06:26:49;;;;;;;6.18;4.60;;;;;;;18.62;75.35;100132.00;4738554;30;20025;-63
2021/05/25 06:29:14;;;;;;;7.28;3.88;;;;;;;18.69;74.77;100141.13;4739064;30;20032;-63
2021/05/25 06:31:40;;;;;;;5.45;3.72;;;;;;;18.73;74.95;100138.13;4738809;30;20033;-63
2021/05/25 06:34:05;;;;;;;7.90;4.28;;;;;;;18.78;74.60;100146.88;4738763;30;20033;-63
2021/05/25 06:36:31;;;;;;;5.43;4.15;;;;;;;18.84;73.23;100147.84;4752623;30;20040;-63
2021/05/25 06:38:56;;;;;;;6.07;3.60;;;;;;;18.91;75.41;100151.69;4738743;30;20029;-62
2021/05/25 06:41:21;;;;;;;5.20;3.85;;;;;;;18.99;74.73;100153.00;4738474;30;20078;-62
2021/05/25 06:43:47;;;;;;;10.55;4.47;;;;;;;19.04;73.81;100158.88;4738561;30;20029;-65
2021/05/25 06:46:12;;;;;;;5.15;3.38;;;;;;;19.13;74.02;100169.53;4738920;30;20087;-65
2021/05/25 06:48:38;;;;;;;7.05;4.57;;;;;;;19.23;74.82;100168.31;4738507;30;20029;-63
2021/05/25 06:51:07;;;;;;;8.95;4.05;;;;;;;19.32;73.71;100165.50;4738473;30;20326;-63
2021/05/25 06:53:34;;;;;;;6.75;3.50;;;;;;;19.40;73.69;100155.41;4738622;30;20037;-63
2021/05/25 06:55:59;;;;;;;10.95;4.47;;;;;;;19.44;71.65;100158.88;4738139;30;20028;-63
2021/05/25 06:58:24;;;;;;;7.95;3.33;;;;;;;19.49;72.76;100160.34;4738371;30;20047;-64
2021/05/25 07:00:50;;;;;;;5.57;3.70;;;;;;;19.54;72.11;100159.75;4737718;30;20032;-63
2021/05/25 07:03:15;;;;;;;5.05;3.72;;;;;;;19.62;72.10;100168.81;4737965;30;20108;-63
2021/05/25 07:05:40;;;;;;;6.93;3.60;;;;;;;19.67;72.22;100160.41;4737639;30;20147;-63
2021/05/25 07:08:06;;;;;;;9.55;3.85;;;;;;;19.75;72.61;100161.72;4736425;30;20028;-64
2021/05/25 07:10:31;;;;;;;10.15;4.20;;;;;;;19.86;72.43;100164.13;4738108;30;20089;-63
2021/05/25 07:12:57;;;;;;;7.07;3.78;;;;;;;19.89;71.53;100163.16;4737428;30;20115;-62
2021/05/25 07:15:22;;;;;;;5.65;3.60;;;;;;;19.97;70.94;100172.22;4735796;30;20051;-63
2021/05/25 07:17:56;;;;;;;5.47;3.65;;;;;;;20.01;70.37;100176.53;4737599;30;20037;-62
2021/05/25 07:20:21;;;;;;;6.78;3.38;;;;;;;20.08;69.74;100166.84;4738357;30;20025;-62
2021/05/25 07:22:51;;;;;;;4.05;3.40;;;;;;;20.14;69.32;100175.56;4737745;30;20059;-62
2021/05/25 07:25:17;;;;;;;9.23;3.67;;;;;;;20.19;69.27;100181.44;4737909;30;20032;-62
2021/05/25 07:27:42;;;;;;;7.72;3.33;;;;;;;20.23;68.06;100175.56;4737927;30;20031;-63
2021/05/25 07:30:08;;;;;;;10.85;4.18;;;;;;;20.26;69.54;100180.31;4738138;30;20303;-63
2021/05/25 07:32:34;;;;;;;6.95;3.55;;;;;;;20.33;67.79;100175.13;4751614;30;20097;-63
2021/05/25 07:34:59;;;;;;;10.07;3.50;;;;;;;20.40;67.80;100191.16;4737707;30;20111;-63
2021/05/25 07:37:24;;;;;;;9.48;3.80;;;;;;;20.42;67.79;100188.63;4737614;30;20029;-63
2021/05/25 07:39:50;;;;;;;4.13;3.30;;;;;;;20.49;67.93;100193.22;4737321;30;20460;-63
2021/05/25 07:42:15;;;;;;;6.53;2.95;;;;;;;20.55;66.69;100186.41;4737742;30;20032;-62
2021/05/25 07:44:40;;;;;;;5.45;2.92;;;;;;;20.60;66.13;100191.47;4737635;30;20055;-65
2021/05/25 07:47:06;;;;;;;7.18;3.90;;;;;;;20.68;68.13;100200.50;4737502;30;20120;-62
2021/05/25 07:49:33;;;;;;;5.78;3.38;;;;;;;20.75;66.85;100203.03;4751268;30;20330;-64
2021/05/25 07:51:59;;;;;;;5.32;3.03;;;;;;;20.80;65.83;100213.03;4737197;30;20033;-65
2021/05/25 07:54:24;;;;;;;8.88;3.78;;;;;;;20.87;65.96;100209.88;4751066;30;20024;-64
2021/05/25 07:56:50;;;;;;;5.45;3.67;;;;;;;20.91;65.26;100219.06;4737539;30;20126;-65
2021/05/25 07:59:15;;;;;;;7.38;3.92;;;;;;;20.97;64.75;100223.63;4737353;30;20040;-66
2021/05/25 08:01:42;;;;;;;8.52;2.78;;;;;;;20.99;64.52;100226.03;4737509;30;20041;-66
2021/05/25 08:04:07;;;;;;;6.93;3.40;;;;;;;21.05;64.41;100234.72;4750670;30;20414;-64
2021/05/25 08:06:35;;;;;;;7.82;3.25;;;;;;;21.09;64.69;100230.47;4736967;30;20048;-64
2021/05/25 08:09:01;;;;;;;5.25;3.47;;;;;;;21.15;64.41;100234.25;4736702;30;20025;-64
2021/05/25 08:11:27;;;;;;;9.60;4.00;;;;;;;21.19;63.95;100237.72;4736992;30;20025;-64
2021/05/25 08:13:52;;;;;;;7.07;2.90;;;;;;;21.17;63.68;100240.28;4737170;30;20078;-64
2021/05/25 08:16:20;;;;;;;5.32;4.03;;;;;;;21.23;63.83;100241.25;4736554;30;20385;-64
2021/05/25 08:21:20;;;;;;;11.43;3.40;;;;;;;21.27;63.05;100241.88;4736565;30;20024;-64
2021/05/25 08:23:45;;;;;;;5.68;3.42;;;;;;;21.32;62.97;100242.47;4737059;30;20318;-66
2021/05/25 08:26:11;;;;;;;13.20;3.08;;;;;;;21.29;62.94;100253.59;4737143;30;20028;-63
2021/05/25 08:28:37;;;;;;;16.58;5.00;;;;;;;21.27;64.03;100253.28;4737115;30;20039;-63
2021/05/25 08:31:04;;;;;;;11.82;4.03;;;;;;;21.27;63.87;100264.72;4736846;30;20020;-63
2021/05/25 08:33:29;;;;;;;8.85;4.05;;;;;;;21.29;64.39;100265.03;4737004;30;20107;-64
2021/05/25 08:35:54;;;;;;;8.32;3.70;;;;;;;21.32;64.21;100265.34;4736732;30;20112;-63
2021/05/25 08:38:21;;;;;;;4.53;3.45;;;;;;;21.40;64.08;100266.63;4735733;30;20130;-62
2021/05/25 08:40:49;;;;;;;7.00;4.20;;;;;;;21.42;63.60;100266.94;4736774;30;20040;-62
2021/05/25 08:43:15;;;;;;;21.70;6.80;;;;;;;21.42;64.16;100264.88;4736893;30;20094;-63
2021/05/25 08:45:41;;;;;;;13.63;4.60;;;;;;;21.46;64.65;100258.97;4736698;30;20041;-63
2021/05/25 08:48:07;;;;;;;15.65;4.70;;;;;;;21.48;63.69;100273.59;4737018;30;20020;-63
2021/05/25 08:50:32;;;;;;;21.00;6.63;;;;;;;21.46;63.32;100271.22;4736644;30;20221;-63
2021/05/25 08:53:03;;;;;;;15.00;6.30;;;;;;;21.46;63.42;100276.13;4750246;30;20032;-63
2021/05/25 08:55:29;;;;;;;19.50;7.15;;;;;;;21.49;65.13;100275.16;4737089;30;20032;-64
2021/05/25 08:57:56;;;;;;;13.13;7.30;;;;;;;21.53;65.24;100275.78;4736646;30;20041;-63
2021/05/25 09:00:22;;;;;;;18.77;8.75;;;;;;;21.54;64.77;100283.88;4736941;30;20435;-63
2021/05/25 09:02:47;;;;;;;19.42;9.27;;;;;;;21.57;64.34;100285.78;4736641;30;20032;-64
2021/05/25 09:05:16;;;;;;;22.30;10.35;;;;;;;21.62;65.34;100289.25;4737157;30;20096;-63
2021/05/25 09:07:41;;;;;;;17.35;8.52;;;;;;;21.63;64.12;100291.63;4736769;30;20033;-63
2021/05/25 09:10:14;;;;;;;13.93;7.75;;;;;;;21.63;63.14;100294.50;4750667;30;20059;-63
2021/05/25 09:12:44;;;;;;;15.63;6.90;;;;;;;21.62;63.57;100307.22;4736996;30;20325;-63
2021/05/25 09:15:10;;;;;;;11.02;6.40;;;;;;;21.58;63.26;100293.06;4736719;30;20033;-65
2021/05/25 09:17:35;;;;;;;14.93;7.00;;;;;;;21.58;63.25;100290.22;4736734;30;20044;-65
2021/05/25 09:20:03;;;;;;;11.93;5.93;;;;;;;21.56;62.80;100289.13;4736380;30;20033;-65
2021/05/25 09:22:39;;;;;;;15.90;6.30;;;;;;;21.52;63.11;100300.72;4750061;30;20417;-63
2021/05/25 09:25:19;;;;;;;14.80;6.00;;;;;;;21.53;63.67;100293.75;4736497;30;20525;-63
2021/05/25 09:28:10;;;;;;;12.55;5.47;;;;;;;21.58;63.41;100300.88;4736798;30;20476;-65
2021/05/25 09:30:34;;;;;;;6.82;5.25;;;;;;;21.63;63.66;100303.06;4738439;30;20068;-63
2021/05/25 09:33:04;;;;;;;11.32;5.05;;;;;;;21.66;64.64;100302.13;4740020;30;20040;-64
2021/05/25 09:35:49;;;;;;;8.60;4.88;;;;;;;21.68;64.40;100313.88;4738703;30;20032;-63
2021/05/25 09:38:25;;;;;;;7.50;4.15;;;;;;;21.67;63.53;100315.16;4739607;30;20033;-63
2021/05/25 09:40:51;;;;;;;7.85;4.78;;;;;;;21.64;63.35;100321.84;4739724;30;20422;-63
2021/05/25 09:43:21;;;;;;;5.25;4.32;;;;;;;21.58;62.77;100323.75;4753383;30;20042;-63
2021/05/25 09:46:13;;;;;;;6.65;4.22;;;;;;;21.53;62.52;100327.25;4739448;30;20104;-62
2021/05/25 09:48:41;;;;;;;8.25;4.78;;;;;;;21.44;62.30;100335.88;4737391;30;20057;-63
2021/05/25 09:51:23;;;;;;;5.35;4.05;;;;;;;21.37;62.44;100337.00;4739662;30;20028;-63
2021/05/25 09:53:49;;;;;;;5.85;4.30;;;;;;;21.27;62.81;100336.19;4739438;30;20133;-63
2021/05/25 09:56:25;;;;;;;7.15;3.90;;;;;;;21.22;63.14;100338.88;4739380;30;20032;-62
2021/05/25 09:58:51;;;;;;;6.35;4.07;;;;;;;21.17;63.59;100340.31;4739463;30;20036;-63
2021/05/25 10:01:17;;;;;;;8.13;4.22;;;;;;;21.18;64.53;100341.91;4739173;30;20369;-63
2021/05/25 10:03:49;;;;;;;11.10;4.80;;;;;;;21.20;64.82;100342.22;4738502;30;20104;-62
2021/05/25 10:06:16;;;;;;;8.38;4.95;;;;;;;21.23;63.75;100341.28;4738201;30;20086;-63
2021/05/25 10:08:44;;;;;;;7.20;4.88;;;;;;;21.29;63.28;100336.50;4738870;30;20075;-63
2021/05/25 10:11:10;;;;;;;7.25;4.38;;;;;;;21.33;63.03;100341.28;4739261;30;20102;-63
2021/05/25 10:13:36;;;;;;;9.63;5.00;;;;;;;21.36;62.81;100343.16;4739189;30;20059;-63
2021/05/25 10:16:01;;;;;;;9.25;4.80;;;;;;;21.35;62.03;100341.56;4739069;30;20054;-62
2021/05/25 10:20:57;;;;;;;4.32;3.22;;;;;;;21.37;62.30;100350.50;4739347;30;20040;-63
2021/05/25 10:23:26;;;;;;;5.70;3.70;;;;;;;21.37;62.92;100348.44;4738761;30;20063;-63
2021/05/25 10:25:52;;;;;;;8.60;3.95;;;;;;;21.36;63.27;100346.03;4739091;30;20037;-63
2021/05/25 10:28:18;;;;;;;5.95;3.67;;;;;;;21.35;63.07;100353.81;4738891;30;20104;-65
2021/05/25 10:30:50;;;;;;;6.65;3.38;;;;;;;21.34;63.60;100357.16;4738868;30;20120;-63
2021/05/25 10:33:22;;;;;;;6.97;3.88;;;;;;;21.33;63.43;100361.28;4738927;30;20043;-63
2021/05/25 10:35:50;;;;;;;8.82;4.47;;;;;;;21.34;63.43;100354.28;4738781;30;20035;-63
2021/05/25 10:38:17;;;;;;;15.38;4.20;;;;;;;21.32;63.79;100359.69;4738630;30;20067;-63
2021/05/25 10:40:47;;;;;;;4.57;3.22;;;;;;;21.31;62.76;100360.97;4738442;30;20036;-63
2021/05/25 10:43:34;;;;;;;7.88;3.78;;;;;;;21.32;62.74;100357.63;4738422;30;20450;-63
2021/05/25 10:46:11;;;;;;;5.47;3.22;;;;;;;21.35;64.37;100355.88;4728532;30;20028;-63
2021/05/25 10:51:53;;;;;;;6.70;3.30;;;;;;;21.39;63.13;100357.31;4738009;30;20526;-63
2021/05/25 10:54:24;;;;;;;6.20;3.45;;;;;;;21.39;62.92;100357.31;4737178;30;20036;-63
2021/05/25 10:56:50;;;;;;;8.25;3.28;;;;;;;21.39;62.75;100350.81;4738575;30;20422;-63
2021/05/25 10:59:17;;;;;;;6.72;3.58;;;;;;;21.38;62.54;100360.66;4738206;30;20041;-63
2021/05/25 11:01:43;;;;;;;2.75;2.42;;;;;;;21.37;63.42;100364.78;4738257;30;20028;-63
2021/05/25 11:04:11;;;;;;;5.28;2.75;;;;;;;21.35;63.00;100364.44;4738549;30;20063;-63
2021/05/25 11:06:36;;;;;;;4.88;2.85;;;;;;;21.31;61.70;100360.97;4738433;30;20097;-63
2021/05/25 11:09:24;;;;;;;4.85;2.78;;;;;;;21.29;62.12;100376.53;4738326;30;20371;-63
2021/05/25 11:12:12;;;;;;;8.68;2.97;;;;;;;21.31;62.33;100360.97;4738203;30;20445;-63
2021/05/25 11:14:58;;;;;;;7.53;2.78;;;;;;;21.32;62.55;100359.69;4738169;30;20037;-63
2021/05/25 11:17:34;;;;;;;6.30;3.03;;;;;;;21.34;61.46;100360.00;4737961;30;20051;-63
2021/05/25 11:20:39;;;;;;;4.70;2.40;;;;;;;21.38;61.41;100374.97;4738026;30;20028;-63
2021/05/25 11:23:40;;;;;;;5.47;2.95;;;;;;;21.38;61.04;100369.25;4751457;30;20067;-63
2021/05/25 11:26:06;;;;;;;5.95;2.80;;;;;;;21.37;62.28;100371.31;4738289;30;20143;-63
2021/05/25 11:29:09;;;;;;;6.85;2.75;;;;;;;21.38;61.05;100367.16;4737960;30;20410;-63
2021/05/25 11:31:39;;;;;;;8.35;3.38;;;;;;;21.35;60.74;100373.03;4738170;30;20063;-63
2021/05/25 11:34:05;;;;;;;7.22;3.72;;;;;;;21.35;61.02;100378.75;4737790;30;20119;-63
2021/05/25 11:36:31;;;;;;;5.60;3.03;;;;;;;21.32;60.47;100391.94;4737885;30;20037;-63
2021/05/25 11:38:57;;;;;;;8.45;3.28;;;;;;;21.26;60.45;100397.50;4737808;30;20063;-63